Time;durP1;ratioP1;P1;durP2;ratioP2;P2;SDS_P1;SDS_P2;PMS_P1;PMS_P2;Temp;Humidity;BMP_temperature;BMP_pressure;BME280_temperature;BME280_humidity;BME280_pressure;Samples;Min_cycle;Max_cycle;Signal;HPM_P1;HPM_P2
2024/01/29 00:01:18;;;;;;;;;;;3.60;99.90;;;;;;5037255;28;19920;-78
2024/01/29 00:04:03;;;;;;;;;;;3.60;99.90;;;;;;5029659;28;19912;-77
2024/01/29 00:06:49;;;;;;;;;;;3.60;99.90;;;;;;5017020;28;20250;-77
2024/01/29 00:09:36;;;;;;;;;;;3.70;99.90;;;;;;5039741;28;20671;-77
2024/01/29 00:12:22;;;;;;;;;;;3.70;99.90;;;;;;5020898;28;19932;-78
2024/01/29 00:15:08;;;;;;;;;;;3.80;99.90;;;;;;5021150;28;19928;-77
2024/01/29 00:17:54;;;;;;;;;;;3.80;99.90;;;;;;5019285;28;19927;-77
2024/01/29 00:20:41;;;;;;;;;;;3.90;99.90;;;;;;5019282;28;19960;-77
2024/01/29 00:23:27;;;;;;;;;;;3.90;99.90;;;;;;5018212;28;20384;-77
2024/01/29 00:26:13;;;;;;;;;;;3.90;99.90;;;;;;5028508;28;19982;-78
2024/01/29 00:28:59;;;;;;;;;;;3.90;99.90;;;;;;5020577;28;19913;-77
2024/01/29 00:31:45;;;;;;;;;;;3.90;99.90;;;;;;5023577;28;19917;-77
2024/01/29 00:34:31;;;;;;;;;;;3.90;99.90;;;;;;5020907;28;20334;-77
2024/01/29 00:37:17;;;;;;;;;;;3.90;99.90;;;;;;5034406;28;19913;-78
2024/01/29 00:40:04;;;;;;;;;;;3.90;99.90;;;;;;5025952;28;19913;-77
2024/01/29 00:42:50;;;;;;;;;;;3.90;99.90;;;;;;5018964;28;19921;-78
2024/01/29 00:45:36;;;;;;;;;;;3.80;99.90;;;;;;5022055;28;20062;-78
2024/01/29 00:48:23;;;;;;;;;;;3.80;99.90;;;;;;5029142;28;20400;-78
2024/01/29 00:51:09;;;;;;;;;;;3.70;99.90;;;;;;5019225;28;19957;-78
2024/01/29 00:53:54;;;;;;;;;;;3.50;99.90;;;;;;5019916;28;19917;-78
2024/01/29 00:56:40;;;;;;;;;;;3.40;99.90;;;;;;5030239;28;19923;-78
2024/01/29 00:59:26;;;;;;;;;;;3.20;99.90;;;;;;5032452;28;19955;-78
2024/01/29 01:02:17;;;;;;;;;;;3.10;99.90;;;;;;5025114;28;20015;-78
2024/01/29 01:05:03;;;;;;;;;;;3.00;99.90;;;;;;5028749;28;19949;-78
2024/01/29 01:07:48;;;;;;;;;;;2.90;99.90;;;;;;5005648;28;19964;-78
2024/01/29 01:10:34;;;;;;;;;;;2.90;99.90;;;;;;5004367;28;19921;-78
2024/01/29 01:13:20;;;;;;;;;;;2.90;99.90;;;;;;5023778;28;20043;-78
2024/01/29 01:16:06;;;;;;;;;;;2.90;99.90;;;;;;5022110;28;19913;-77
2024/01/29 01:18:52;;;;;;;;;;;3.00;99.90;;;;;;5011465;28;19913;-78
2024/01/29 01:21:38;;;;;;;;;;;3.00;99.90;;;;;;5022464;28;20289;-78
2024/01/29 01:24:24;;;;;;;;;;;3.10;99.90;;;;;;5010142;28;20360;-78
2024/01/29 01:27:11;;;;;;;;;;;3.10;99.90;;;;;;5044922;28;19916;-78
2024/01/29 01:29:57;;;;;;;;;;;3.00;99.90;;;;;;5031460;28;19920;-78
2024/01/29 01:32:43;;;;;;;;;;;3.00;99.90;;;;;;5011609;28;19944;-78
2024/01/29 01:35:29;;;;;;;;;;;2.90;99.90;;;;;;5034776;28;20616;-78
2024/01/29 01:38:15;;;;;;;;;;;2.90;99.90;;;;;;5042301;28;19975;-78
2024/01/29 01:41:01;;;;;;;;;;;3.00;99.90;;;;;;5038885;28;19921;-78
2024/01/29 01:43:47;;;;;;;;;;;3.00;99.90;;;;;;5042797;28;19912;-78
2024/01/29 01:46:32;;;;;;;;;;;2.90;99.90;;;;;;5024760;28;19917;-78
2024/01/29 01:49:18;;;;;;;;;;;2.80;99.90;;;;;;5022107;28;19917;-77
2024/01/29 01:52:04;;;;;;;;;;;2.70;99.90;;;;;;5038354;28;20715;-78
2024/01/29 01:54:52;;;;;;;;;;;2.70;99.90;;;;;;5009137;28;19921;-77
2024/01/29 01:57:38;;;;;;;;;;;2.60;99.90;;;;;;5035331;28;19921;-78
2024/01/29 02:00:24;;;;;;;;;;;2.60;99.90;;;;;;5053282;28;19928;-78
2024/01/29 02:03:10;;;;;;;;;;;2.60;99.90;;;;;;5022551;28;19924;-77
2024/01/29 02:05:56;;;;;;;;;;;2.60;99.90;;;;;;5036589;28;19932;-77
2024/01/29 02:08:42;;;;;;;;;;;2.50;99.90;;;;;;5008610;28;19921;-78
2024/01/29 02:11:28;;;;;;;;;;;2.40;99.90;;;;;;5021869;28;19936;-78
2024/01/29 02:14:13;;;;;;;;;;;2.40;99.90;;;;;;5001850;28;20739;-77
2024/01/29 02:16:59;;;;;;;;;;;2.30;99.90;;;;;;4989364;28;19964;-77
2024/01/29 02:19:45;;;;;;;;;;;2.40;99.90;;;;;;5004617;28;19920;-78
2024/01/29 02:22:31;;;;;;;;;;;2.30;99.90;;;;;;5005893;28;19917;-77
2024/01/29 02:25:17;;;;;;;;;;;2.20;99.90;;;;;;5001218;28;20000;-77
2024/01/29 02:28:03;;;;;;;;;;;2.20;99.90;;;;;;5000178;28;19921;-77
2024/01/29 02:30:49;;;;;;;;;;;2.20;99.90;;;;;;5012367;28;20055;-77
2024/01/29 02:33:35;;;;;;;;;;;2.20;99.90;;;;;;5008812;28;19921;-78
2024/01/29 02:36:21;;;;;;;;;;;2.20;99.90;;;;;;5003042;28;19914;-78
2024/01/29 02:39:08;;;;;;;;;;;2.20;99.90;;;;;;4996216;28;19921;-77
2024/01/29 02:41:53;;;;;;;;;;;2.20;99.90;;;;;;4991440;28;20139;-77
2024/01/29 02:44:39;;;;;;;;;;;2.20;99.90;;;;;;5013046;28;19913;-77
2024/01/29 02:47:25;;;;;;;;;;;2.20;99.90;;;;;;5004432;28;20326;-77
2024/01/29 02:50:11;;;;;;;;;;;2.10;99.90;;;;;;5000398;28;19913;-77
2024/01/29 02:52:58;;;;;;;;;;;2.10;99.90;;;;;;5009649;28;19921;-77
2024/01/29 02:55:44;;;;;;;;;;;2.10;99.90;;;;;;5001912;28;19924;-77
2024/01/29 02:58:31;;;;;;;;;;;2.00;99.90;;;;;;5005684;28;19917;-77
2024/01/29 03:01:19;;;;;;;;;;;2.00;99.90;;;;;;5002717;28;19941;-77
2024/01/29 03:04:04;;;;;;;;;;;1.90;99.90;;;;;;4991623;28;19988;-77
2024/01/29 03:06:50;;;;;;;;;;;1.90;99.90;;;;;;5032485;28;19928;-77
2024/01/29 03:09:37;;;;;;;;;;;1.90;99.90;;;;;;5016269;28;19920;-77
2024/01/29 03:12:23;;;;;;;;;;;1.80;99.90;;;;;;5040408;28;19921;-77
2024/01/29 03:15:09;;;;;;;;;;;1.80;99.90;;;;;;5035889;28;19913;-77
2024/01/29 03:17:55;;;;;;;;;;;1.80;99.90;;;;;;5019770;28;19999;-77
2024/01/29 03:20:41;;;;;;;;;;;1.70;99.90;;;;;;5035544;28;20233;-77
2024/01/29 03:23:27;;;;;;;;;;;1.70;99.90;;;;;;5020281;28;19928;-77
2024/01/29 03:26:12;;;;;;;;;;;1.70;99.90;;;;;;5008177;28;19943;-77
2024/01/29 03:28:58;;;;;;;;;;;1.70;99.90;;;;;;5027185;28;19920;-77
2024/01/29 03:31:44;;;;;;;;;;;1.70;99.90;;;;;;5048820;28;19921;-77
2024/01/29 03:34:30;;;;;;;;;;;1.70;99.90;;;;;;5033933;28;20533;-77
2024/01/29 03:37:16;;;;;;;;;;;1.70;99.90;;;;;;5040991;28;19996;-77
2024/01/29 03:40:05;;;;;;;;;;;1.70;99.90;;;;;;5025793;28;19916;-77
2024/01/29 03:42:52;;;;;;;;;;;1.60;99.90;;;;;;5032693;28;19955;-77
2024/01/29 03:45:38;;;;;;;;;;;1.60;99.90;;;;;;5032397;28;19917;-77
2024/01/29 03:48:23;;;;;;;;;;;1.70;99.90;;;;;;5020108;28;19995;-77
2024/01/29 03:51:09;;;;;;;;;;;1.70;99.90;;;;;;5032142;28;20611;-77
2024/01/29 03:53:55;;;;;;;;;;;1.80;99.90;;;;;;5020919;28;20006;-77
2024/01/29 03:56:41;;;;;;;;;;;1.90;99.90;;;;;;5024381;28;19923;-77
2024/01/29 03:59:27;;;;;;;;;;;1.90;99.90;;;;;;5038468;28;19912;-77
2024/01/29 04:02:14;;;;;;;;;;;2.00;99.90;;;;;;5039487;28;19912;-77
2024/01/29 04:05:00;;;;;;;;;;;2.00;99.90;;;;;;5049866;28;19913;-77
2024/01/29 04:07:46;;;;;;;;;;;2.10;99.90;;;;;;5039838;28;19921;-77
2024/01/29 04:10:32;;;;;;;;;;;2.10;99.90;;;;;;5017709;28;19927;-75
2024/01/29 04:13:18;;;;;;;;;;;2.10;99.90;;;;;;5066375;28;20402;-76
2024/01/29 04:16:05;;;;;;;;;;;2.10;99.90;;;;;;5066603;28;19916;-76
2024/01/29 04:18:51;;;;;;;;;;;2.00;99.90;;;;;;5037834;28;19963;-76
2024/01/29 04:21:40;;;;;;;;;;;1.90;99.90;;;;;;5022329;28;19924;-76
2024/01/29 04:24:28;;;;;;;;;;;1.90;99.90;;;;;;5019652;28;19917;-75
2024/01/29 04:27:14;;;;;;;;;;;1.80;99.90;;;;;;5031584;28;20397;-75
2024/01/29 04:30:03;;;;;;;;;;;1.80;99.90;;;;;;5009119;28;19913;-75
2024/01/29 04:32:49;;;;;;;;;;;1.80;99.90;;;;;;5025866;28;19918;-76
2024/01/29 04:35:35;;;;;;;;;;;1.70;99.90;;;;;;5025695;28;19917;-75
2024/01/29 04:38:21;;;;;;;;;;;1.70;99.90;;;;;;5038033;28;20496;-75
2024/01/29 04:41:07;;;;;;;;;;;1.80;99.90;;;;;;5038782;28;20010;-75
2024/01/29 04:43:53;;;;;;;;;;;1.80;99.90;;;;;;5026016;28;19917;-76
2024/01/29 04:46:38;;;;;;;;;;;1.80;99.90;;;;;;5020114;28;19949;-76
2024/01/29 04:49:25;;;;;;;;;;;1.80;99.90;;;;;;5021781;28;19932;-76
2024/01/29 04:52:11;;;;;;;;;;;1.80;99.90;;;;;;5031102;28;19924;-75
2024/01/29 04:54:57;;;;;;;;;;;1.90;99.90;;;;;;5027322;28;19913;-76
2024/01/29 04:57:43;;;;;;;;;;;1.90;99.90;;;;;;5044233;28;20004;-75
2024/01/29 05:00:28;;;;;;;;;;;1.90;99.90;;;;;;5044775;28;19924;-75
2024/01/29 05:03:14;;;;;;;;;;;2.00;99.90;;;;;;5040953;28;19975;-75
2024/01/29 05:06:00;;;;;;;;;;;2.00;99.90;;;;;;5030750;28;19921;-76
2024/01/29 05:08:46;;;;;;;;;;;2.00;99.90;;;;;;5042305;28;19921;-76
2024/01/29 05:11:32;;;;;;;;;;;2.00;99.90;;;;;;5020336;28;20340;-76
2024/01/29 05:14:19;;;;;;;;;;;1.90;99.90;;;;;;5058796;28;19916;-75
2024/01/29 05:17:05;;;;;;;;;;;1.90;99.90;;;;;;5027519;28;20296;-76
2024/01/29 05:19:52;;;;;;;;;;;2.00;99.90;;;;;;5030908;28;19921;-76
2024/01/29 05:22:38;;;;;;;;;;;2.00;99.90;;;;;;5031990;28;19978;-76
2024/01/29 05:25:24;;;;;;;;;;;2.00;99.90;;;;;;5045734;28;19917;-75
2024/01/29 05:28:09;;;;;;;;;;;1.90;99.90;;;;;;5026654;28;19956;-75
2024/01/29 05:30:55;;;;;;;;;;;1.90;99.90;;;;;;5034092;28;19917;-75
2024/01/29 05:33:41;;;;;;;;;;;1.80;99.90;;;;;;5010730;28;19951;-76
2024/01/29 05:36:27;;;;;;;;;;;1.90;99.90;;;;;;5049175;28;19919;-75
2024/01/29 05:39:13;;;;;;;;;;;1.90;99.90;;;;;;5025742;28;19913;-75
2024/01/29 05:41:59;;;;;;;;;;;1.80;99.90;;;;;;5025990;28;19971;-76
2024/01/29 05:44:45;;;;;;;;;;;1.70;99.90;;;;;;5039938;28;20310;-76
2024/01/29 05:47:32;;;;;;;;;;;1.70;99.90;;;;;;5025534;28;19920;-76
2024/01/29 05:50:18;;;;;;;;;;;1.70;99.90;;;;;;5027466;28;19970;-76
2024/01/29 05:53:04;;;;;;;;;;;1.60;99.90;;;;;;5024653;28;19953;-75
2024/01/29 05:55:49;;;;;;;;;;;1.60;99.90;;;;;;5018909;28;19917;-75
2024/01/29 05:58:36;;;;;;;;;;;1.60;99.90;;;;;;5024039;28;19921;-75
2024/01/29 06:01:22;;;;;;;;;;;1.50;99.90;;;;;;5023893;28;20006;-76
2024/01/29 06:04:08;;;;;;;;;;;1.60;99.90;;;;;;5020151;28;19913;-75
2024/01/29 06:06:54;;;;;;;;;;;1.50;99.90;;;;;;5041489;28;20405;-76
2024/01/29 06:09:42;;;;;;;;;;;1.60;99.90;;;;;;5031702;28;21442;-76
2024/01/29 06:12:28;;;;;;;;;;;1.60;99.90;;;;;;5028139;28;19927;-76
2024/01/29 06:15:13;;;;;;;;;;;1.60;99.90;;;;;;5027215;28;20325;-76
2024/01/29 06:17:59;;;;;;;;;;;1.60;99.90;;;;;;5022388;28;19913;-76
2024/01/29 06:20:45;;;;;;;;;;;1.50;99.90;;;;;;5022254;28;19928;-76
2024/01/29 06:23:32;;;;;;;;;;;1.50;99.90;;;;;;5035093;28;20288;-76
2024/01/29 06:26:19;;;;;;;;;;;1.50;99.90;;;;;;5027722;28;19912;-76
2024/01/29 06:29:05;;;;;;;;;;;1.60;99.90;;;;;;5035113;28;19925;-76
2024/01/29 06:31:51;;;;;;;;;;;1.60;99.90;;;;;;5040277;28;20629;-76
2024/01/29 06:34:38;;;;;;;;;;;1.60;99.90;;;;;;5021563;28;19952;-76
2024/01/29 06:37:25;;;;;;;;;;;1.60;99.90;;;;;;5018373;28;19917;-76
2024/01/29 06:40:11;;;;;;;;;;;1.60;99.90;;;;;;5033979;28;19917;-76
2024/01/29 06:42:57;;;;;;;;;;;1.70;99.90;;;;;;5036016;28;19917;-76
2024/01/29 06:45:43;;;;;;;;;;;1.70;99.90;;;;;;5023932;28;20306;-76
2024/01/29 06:48:30;;;;;;;;;;;1.80;99.90;;;;;;5027111;28;19932;-78
2024/01/29 06:51:16;;;;;;;;;;;1.80;99.90;;;;;;5028728;28;20003;-76
2024/01/29 06:54:03;;;;;;;;;;;1.80;99.90;;;;;;5041268;28;19917;-77
2024/01/29 06:56:49;;;;;;;;;;;1.90;99.90;;;;;;5014016;28;19917;-75
2024/01/29 06:59:35;;;;;;;;;;;1.80;99.90;;;;;;5050946;28;19917;-78
2024/01/29 07:02:22;;;;;;;;;;;1.80;99.90;;;;;;5055036;28;19925;-76
2024/01/29 07:05:07;;;;;;;;;;;1.80;99.90;;;;;;5040307;28;19913;-76
2024/01/29 07:07:53;;;;;;;;;;;1.80;99.90;;;;;;5047351;28;19925;-76
2024/01/29 07:10:39;;;;;;;;;;;1.90;99.90;;;;;;5032253;28;19925;-76
2024/01/29 07:13:25;;;;;;;;;;;1.80;99.90;;;;;;5050325;28;19917;-77
2024/01/29 07:16:11;;;;;;;;;;;1.80;99.90;;;;;;5055396;28;19992;-76
2024/01/29 07:18:58;;;;;;;;;;;1.80;99.90;;;;;;5026387;28;20003;-76
2024/01/29 07:21:44;;;;;;;;;;;1.90;99.90;;;;;;5020278;28;19917;-77
2024/01/29 07:24:36;;;;;;;;;;;2.00;99.90;;;;;;5040362;28;19999;-76
2024/01/29 07:27:22;;;;;;;;;;;2.00;99.90;;;;;;5039043;28;19920;-76
2024/01/29 07:30:08;;;;;;;;;;;2.00;99.90;;;;;;5025514;28;20296;-76
2024/01/29 07:32:54;;;;;;;;;;;2.00;99.90;;;;;;5010251;28;19956;-76
2024/01/29 07:35:40;;;;;;;;;;;2.00;99.90;;;;;;5024833;28;19913;-76
2024/01/29 07:38:26;;;;;;;;;;;1.90;99.90;;;;;;5036072;28;19917;-76
2024/01/29 07:41:11;;;;;;;;;;;1.90;99.90;;;;;;5041676;28;19927;-77
2024/01/29 07:43:57;;;;;;;;;;;2.00;99.90;;;;;;5024726;28;19956;-75
2024/01/29 07:46:43;;;;;;;;;;;2.20;99.90;;;;;;5024997;28;19916;-76
2024/01/29 07:49:31;;;;;;;;;;;2.30;99.90;;;;;;5020566;28;19924;-76
2024/01/29 07:52:17;;;;;;;;;;;2.30;99.90;;;;;;5027678;28;20000;-76
2024/01/29 07:55:03;;;;;;;;;;;2.40;99.90;;;;;;5036668;28;19921;-76
2024/01/29 07:57:49;;;;;;;;;;;2.40;99.90;;;;;;5019242;28;19917;-76
2024/01/29 08:00:35;;;;;;;;;;;2.40;99.90;;;;;;5033200;28;20000;-76
2024/01/29 08:03:22;;;;;;;;;;;2.40;99.90;;;;;;5024146;28;19913;-75
2024/01/29 08:06:07;;;;;;;;;;;2.50;99.90;;;;;;5013374;28;19921;-76
2024/01/29 08:08:53;;;;;;;;;;;2.60;99.90;;;;;;5024412;28;20016;-77
2024/01/29 08:11:39;;;;;;;;;;;2.70;99.90;;;;;;5000375;28;19980;-76
2024/01/29 08:14:25;;;;;;;;;;;2.80;99.90;;;;;;5005918;28;19932;-76
2024/01/29 08:17:11;;;;;;;;;;;2.80;99.90;;;;;;5032903;28;19913;-76
2024/01/29 08:19:57;;;;;;;;;;;2.80;99.90;;;;;;5035408;28;19913;-76
2024/01/29 08:22:43;;;;;;;;;;;2.80;99.90;;;;;;5000999;28;19917;-76
2024/01/29 08:25:29;;;;;;;;;;;2.80;99.90;;;;;;5000908;28;19925;-76
2024/01/29 08:28:15;;;;;;;;;;;2.90;99.90;;;;;;5000240;28;19921;-76
2024/01/29 08:31:01;;;;;;;;;;;2.90;99.90;;;;;;5014168;28;19920;-76
2024/01/29 08:33:47;;;;;;;;;;;3.00;99.90;;;;;;5003932;28;20005;-76
2024/01/29 08:36:33;;;;;;;;;;;3.10;99.90;;;;;;5005864;28;19928;-76
2024/01/29 08:39:19;;;;;;;;;;;3.10;99.90;;;;;;5010874;28;19960;-76
2024/01/29 08:42:06;;;;;;;;;;;3.10;99.90;;;;;;5020230;28;20008;-76
2024/01/29 08:44:56;;;;;;;;;;;3.20;99.90;;;;;;5019441;28;20013;-75
2024/01/29 08:47:41;;;;;;;;;;;3.30;99.90;;;;;;4985028;28;19932;-75
2024/01/29 08:50:27;;;;;;;;;;;3.50;99.90;;;;;;5009315;28;19971;-75
2024/01/29 08:53:14;;;;;;;;;;;3.70;99.90;;;;;;5001643;28;19917;-75
2024/01/29 08:56:00;;;;;;;;;;;4.00;99.90;;;;;;5009171;28;20639;-76
2024/01/29 08:58:46;;;;;;;;;;;4.20;99.90;;;;;;5011315;28;19927;-75
2024/01/29 09:01:31;;;;;;;;;;;4.40;99.90;;;;;;5011814;28;19988;-75
2024/01/29 09:04:17;;;;;;;;;;;4.60;99.90;;;;;;5029988;28;19917;-76
2024/01/29 09:07:03;;;;;;;;;;;4.70;99.90;;;;;;5028140;28;20039;-76
2024/01/29 09:09:49;;;;;;;;;;;5.00;99.90;;;;;;5037370;28;20340;-75
2024/01/29 09:12:35;;;;;;;;;;;5.20;99.90;;;;;;5032226;28;19920;-76
2024/01/29 09:15:21;;;;;;;;;;;5.50;99.90;;;;;;5028857;28;20005;-76
2024/01/29 09:18:06;;;;;;;;;;;5.90;99.90;;;;;;5040845;28;20356;-76
2024/01/29 09:20:52;;;;;;;;;;;6.10;99.90;;;;;;5023778;28;19913;-76
2024/01/29 09:23:38;;;;;;;;;;;6.20;99.90;;;;;;5019460;28;19927;-76
2024/01/29 09:26:25;;;;;;;;;;;6.50;99.90;;;;;;5024672;28;19916;-76
2024/01/29 09:29:11;;;;;;;;;;;6.60;99.90;;;;;;5023581;28;19916;-76
2024/01/29 09:31:57;;;;;;;;;;;6.70;99.90;;;;;;5026316;28;20295;-76
2024/01/29 09:34:42;;;;;;;;;;;6.80;99.90;;;;;;5026284;28;20397;-76
2024/01/29 09:37:28;;;;;;;;;;;7.00;99.90;;;;;;5021674;28;19952;-76
2024/01/29 09:40:14;;;;;;;;;;;7.10;99.90;;;;;;5010250;28;19913;-76
2024/01/29 09:43:00;;;;;;;;;;;7.30;99.90;;;;;;5039528;28;19975;-75
2024/01/29 09:45:48;;;;;;;;;;;7.40;99.90;;;;;;5028682;28;20067;-76
2024/01/29 09:48:34;;;;;;;;;;;7.60;99.90;;;;;;5024700;28;19917;-75
2024/01/29 09:51:20;;;;;;;;;;;7.70;99.90;;;;;;5032333;28;19959;-75
2024/01/29 09:54:06;;;;;;;;;;;7.90;99.90;;;;;;5041237;28;19913;-76
2024/01/29 09:56:52;;;;;;;;;;;7.90;99.90;;;;;;5014745;28;19917;-76
2024/01/29 09:59:38;;;;;;;;;;;8.00;99.90;;;;;;5027074;28;20010;-76
2024/01/29 10:02:24;;;;;;;;;;;8.00;99.90;;;;;;5027583;28;19916;-76
2024/01/29 10:05:11;;;;;;;;;;;8.10;99.90;;;;;;5034413;28;19913;-76
2024/01/29 10:08:00;;;;;;;;;;;8.20;99.90;;;;;;5021547;28;19983;-76
2024/01/29 10:10:48;;;;;;;;;;;8.20;99.90;;;;;;5017545;28;19913;-76
2024/01/29 10:13:34;;;;;;;;;;;8.30;99.90;;;;;;5031690;28;19928;-76
2024/01/29 10:16:20;;;;;;;;;;;8.30;99.90;;;;;;5032126;28;20001;-76
2024/01/29 10:19:06;;;;;;;;;;;8.40;99.90;;;;;;5041272;28;19927;-75
2024/01/29 10:21:52;;;;;;;;;;;8.50;99.90;;;;;;5023272;28;19944;-76
2024/01/29 10:24:37;;;;;;;;;;;8.50;99.90;;;;;;5036817;28;19917;-76
2024/01/29 10:27:23;;;;;;;;;;;8.50;99.90;;;;;;5022816;28;20329;-76
2024/01/29 10:30:09;;;;;;;;;;;8.60;99.90;;;;;;5021812;28;19917;-76
2024/01/29 10:32:55;;;;;;;;;;;8.60;99.90;;;;;;5026157;28;19929;-76
2024/01/29 10:35:42;;;;;;;;;;;8.70;99.90;;;;;;5024541;28;19917;-75
2024/01/29 10:38:28;;;;;;;;;;;8.70;99.90;;;;;;5028011;28;19941;-76
2024/01/29 10:41:17;;;;;;;;;;;8.80;99.90;;;;;;5012842;28;19924;-75
2024/01/29 10:44:03;;;;;;;;;;;8.80;99.90;;;;;;5020516;28;19913;-76
2024/01/29 10:46:49;;;;;;;;;;;8.80;99.90;;;;;;5020484;28;19928;-76
2024/01/29 10:49:35;;;;;;;;;;;8.80;99.80;;;;;;5036104;28;19921;-76
2024/01/29 10:52:21;;;;;;;;;;;8.80;99.90;;;;;;5008345;28;19917;-76
2024/01/29 10:55:10;;;;;;;;;;;8.90;99.90;;;;;;5027888;28;19931;-76
2024/01/29 10:57:58;;;;;;;;;;;9.00;99.90;;;;;;5020586;28;19922;-76
2024/01/29 11:00:44;;;;;;;;;;;9.00;99.90;;;;;;5018937;28;20370;-76
2024/01/29 11:03:30;;;;;;;;;;;9.00;99.90;;;;;;5010739;28;19917;-76
2024/01/29 11:06:19;;;;;;;;;;;9.60;99.90;;;;;;5020473;28;19932;-76
2024/01/29 11:09:09;;;;;;;;;;;10.40;98.40;;;;;;5021545;28;19925;-76
2024/01/29 11:11:56;;;;;;;;;;;11.00;98.00;;;;;;5021096;28;19913;-76
2024/01/29 11:14:55;;;;;;;;;;;11.50;95.20;;;;;;5051616;28;19920;-76
2024/01/29 11:17:41;;;;;;;;;;;12.10;96.30;;;;;;5007834;28;20003;-76
2024/01/29 11:20:31;;;;;;;;;;;12.70;95.40;;;;;;5005237;28;20621;-76
2024/01/29 11:23:20;;;;;;;;;;;13.10;92.40;;;;;;5026182;28;19948;-76
2024/01/29 11:26:10;;;;;;;;;;;13.60;93.40;;;;;;5019440;28;19917;-76
2024/01/29 11:28:56;;;;;;;;;;;13.70;91.50;;;;;;5006483;28;19971;-76
2024/01/29 11:31:42;;;;;;;;;;;14.00;91.40;;;;;;5018592;28;20579;-76
2024/01/29 11:34:28;;;;;;;;;;;14.40;91.20;;;;;;5006052;28;19975;-76
2024/01/29 11:37:23;;;;;;;;;;;14.70;90.90;;;;;;5019469;28;19913;-76
2024/01/29 11:40:28;;;;;;;;;;;14.90;90.20;;;;;;5018231;28;19923;-76
2024/01/29 11:43:18;;;;;;;;;;;14.80;87.10;;;;;;5022203;28;20011;-76
2024/01/29 11:46:04;;;;;;;;;;;14.90;88.70;;;;;;5019726;28;20405;-76
2024/01/29 11:48:50;;;;;;;;;;;14.90;88.20;;;;;;5010019;28;19917;-76
2024/01/29 11:51:37;;;;;;;;;;;14.90;88.60;;;;;;5024802;28;19943;-75
2024/01/29 11:54:23;;;;;;;;;;;14.70;87.40;;;;;;5018652;28;19940;-76
2024/01/29 11:57:09;;;;;;;;;;;14.70;87.60;;;;;;5006192;28;19928;-76
2024/01/29 11:59:55;;;;;;;;;;;14.20;86.60;;;;;;5038302;28;19936;-77
2024/01/29 12:02:41;;;;;;;;;;;13.90;87.10;;;;;;5054212;28;19959;-77
2024/01/29 12:05:27;;;;;;;;;;;13.90;87.40;;;;;;5026403;28;19913;-77
2024/01/29 12:08:14;;;;;;;;;;;13.70;86.10;;;;;;5026498;28;19921;-77
2024/01/29 12:11:03;;;;;;;;;;;13.70;87.80;;;;;;5026813;28;19917;-77
2024/01/29 12:13:50;;;;;;;;;;;14.00;89.00;;;;;;5040092;28;19927;-77
2024/01/29 12:16:36;;;;;;;;;;;14.40;88.50;;;;;;5009431;28;20008;-77
2024/01/29 12:19:22;;;;;;;;;;;14.20;87.50;;;;;;5019192;28;19921;-77
2024/01/29 12:22:11;;;;;;;;;;;14.40;86.80;;;;;;5011120;28;19916;-77
2024/01/29 12:24:57;;;;;;;;;;;14.60;88.00;;;;;;5047951;28;20345;-78
2024/01/29 12:27:43;;;;;;;;;;;14.80;87.50;;;;;;5038512;28;20349;-77
2024/01/29 12:30:30;;;;;;;;;;;15.00;86.00;;;;;;5038775;28;19923;-77
2024/01/29 12:33:21;;;;;;;;;;;14.90;87.10;;;;;;5050022;28;19917;-77
2024/01/29 12:36:13;;;;;;;;;;;14.70;88.30;;;;;;5019207;28;20560;-77
2024/01/29 12:39:00;;;;;;;;;;;15.00;87.70;;;;;;5034272;28;19917;-77
2024/01/29 12:41:46;;;;;;;;;;;15.00;84.90;;;;;;5035197;28;20312;-76
2024/01/29 12:44:32;;;;;;;;;;;15.30;86.80;;;;;;5027127;28;19916;-76
2024/01/29 12:47:19;;;;;;;;;;;15.40;85.10;;;;;;5029622;28;19948;-76
2024/01/29 12:50:05;;;;;;;;;;;15.30;86.80;;;;;;5012718;28;19925;-76
2024/01/29 12:52:51;;;;;;;;;;;15.20;87.60;;;;;;5024854;28;20356;-76
2024/01/29 12:55:40;;;;;;;;;;;15.20;86.00;;;;;;5039211;28;19988;-76
2024/01/29 12:58:26;;;;;;;;;;;15.40;85.50;;;;;;5040078;28;20230;-77
2024/01/29 13:01:12;;;;;;;;;;;15.30;85.10;;;;;;5018919;28;19917;-77
2024/01/29 13:03:58;;;;;;;;;;;14.90;85.60;;;;;;5032723;28;19917;-78
2024/01/29 13:06:44;;;;;;;;;;;15.10;88.30;;;;;;5018362;28;19925;-78
2024/01/29 13:09:30;;;;;;;;;;;15.10;87.20;;;;;;5018151;28;19931;-77
2024/01/29 13:12:16;;;;;;;;;;;14.80;87.10;;;;;;5026643;28;19928;-77
2024/01/29 13:15:03;;;;;;;;;;;14.70;88.00;;;;;;5029419;28;19924;-77
2024/01/29 13:17:49;;;;;;;;;;;14.60;86.50;;;;;;5023268;28;19948;-78
2024/01/29 13:20:36;;;;;;;;;;;14.60;87.90;;;;;;5035975;28;19921;-77
2024/01/29 13:23:23;;;;;;;;;;;14.50;88.50;;;;;;5038598;28;19913;-77
2024/01/29 13:26:08;;;;;;;;;;;14.50;88.70;;;;;;5022402;28;19917;-77
2024/01/29 13:28:55;;;;;;;;;;;14.10;88.60;;;;;;5014424;28;20241;-77
2024/01/29 13:31:41;;;;;;;;;;;14.20;89.70;;;;;;5021948;28;19916;-77
2024/01/29 13:34:27;;;;;;;;;;;14.10;90.00;;;;;;5023512;28;19913;-78
2024/01/29 13:37:13;;;;;;;;;;;14.10;90.40;;;;;;5019124;28;19917;-78
2024/01/29 13:39:59;;;;;;;;;;;14.20;90.40;;;;;;5037298;28;19920;-77
2024/01/29 13:42:45;;;;;;;;;;;14.10;90.00;;;;;;5014996;28;19920;-77
2024/01/29 13:45:31;;;;;;;;;;;13.90;90.10;;;;;;5042259;28;19912;-77
2024/01/29 13:48:17;;;;;;;;;;;13.80;90.40;;;;;;5028120;28;20249;-77
2024/01/29 13:51:03;;;;;;;;;;;13.80;91.10;;;;;;5042209;28;19913;-77
2024/01/29 13:53:49;;;;;;;;;;;13.70;91.10;;;;;;5052105;28;20372;-77
2024/01/29 13:56:35;;;;;;;;;;;13.60;91.10;;;;;;5021570;28;20370;-77
2024/01/29 13:59:21;;;;;;;;;;;13.50;91.20;;;;;;5024270;28;19920;-77
2024/01/29 14:02:07;;;;;;;;;;;13.30;91.70;;;;;;5036025;28;19917;-77
2024/01/29 14:04:53;;;;;;;;;;;13.30;92.00;;;;;;5040974;28;19996;-77
2024/01/29 14:07:40;;;;;;;;;;;13.10;92.30;;;;;;5045512;28;20004;-78
2024/01/29 14:10:25;;;;;;;;;;;12.90;92.30;;;;;;5026372;28;19971;-77
2024/01/29 14:13:15;;;;;;;;;;;12.80;92.80;;;;;;5055868;28;19912;-77
2024/01/29 14:16:01;;;;;;;;;;;12.70;92.80;;;;;;5042774;28;19913;-77
2024/01/29 14:18:49;;;;;;;;;;;12.70;92.90;;;;;;5042211;28;19913;-77
2024/01/29 14:21:35;;;;;;;;;;;12.60;93.30;;;;;;5028662;28;19917;-77
2024/01/29 14:24:21;;;;;;;;;;;12.50;93.80;;;;;;5035350;28;19924;-77
2024/01/29 14:27:08;;;;;;;;;;;12.50;93.90;;;;;;5034364;28;19948;-76
2024/01/29 14:29:54;;;;;;;;;;;12.50;93.80;;;;;;5041262;28;20272;-77
2024/01/29 14:32:40;;;;;;;;;;;12.60;94.20;;;;;;5027617;28;19913;-76
2024/01/29 14:35:26;;;;;;;;;;;12.60;93.70;;;;;;5051883;28;19916;-76
2024/01/29 14:38:12;;;;;;;;;;;12.80;93.70;;;;;;5048485;28;19917;-76
2024/01/29 14:40:58;;;;;;;;;;;12.80;93.30;;;;;;5019997;28;20222;-76
2024/01/29 14:43:44;;;;;;;;;;;12.80;93.60;;;;;;5013218;28;19928;-76
2024/01/29 14:46:30;;;;;;;;;;;12.70;93.90;;;;;;5054485;28;19917;-76
2024/01/29 14:49:16;;;;;;;;;;;12.80;93.70;;;;;;5022652;28;19935;-76
2024/01/29 14:52:04;;;;;;;;;;;12.70;93.70;;;;;;5040287;28;20317;-75
2024/01/29 14:54:50;;;;;;;;;;;12.60;93.70;;;;;;5018377;28;19914;-76
2024/01/29 14:57:38;;;;;;;;;;;12.70;93.60;;;;;;5018490;28;20337;-76
2024/01/29 15:00:24;;;;;;;;;;;12.60;93.80;;;;;;5005831;28;20386;-76
2024/01/29 15:03:13;;;;;;;;;;;12.60;94.20;;;;;;5026827;28;20019;-76
2024/01/29 15:05:59;;;;;;;;;;;12.50;94.40;;;;;;5013575;28;19925;-76
2024/01/29 15:08:45;;;;;;;;;;;12.40;94.70;;;;;;5001830;28;20348;-76
2024/01/29 15:11:31;;;;;;;;;;;12.30;94.60;;;;;;5029916;28;19928;-75
2024/01/29 15:14:16;;;;;;;;;;;12.30;94.80;;;;;;5028471;28;20230;-76
2024/01/29 15:17:05;;;;;;;;;;;12.10;95.10;;;;;;5014879;28;20398;-76
2024/01/29 15:19:51;;;;;;;;;;;12.10;95.20;;;;;;5000382;28;20242;-76
2024/01/29 15:22:36;;;;;;;;;;;11.90;95.40;;;;;;5008718;28;20007;-76
2024/01/29 15:25:23;;;;;;;;;;;11.70;96.10;;;;;;5004733;28;19917;-77
2024/01/29 15:28:08;;;;;;;;;;;11.50;96.10;;;;;;5029109;28;19971;-77
2024/01/29 15:30:54;;;;;;;;;;;11.50;96.50;;;;;;5020601;28;19913;-75
2024/01/29 15:33:44;;;;;;;;;;;11.40;96.80;;;;;;4994766;28;20053;-74
2024/01/29 15:36:30;;;;;;;;;;;11.30;97.10;;;;;;5005238;28;19912;-75
2024/01/29 15:39:17;;;;;;;;;;;11.20;97.40;;;;;;5007213;28;19928;-74
2024/01/29 15:42:03;;;;;;;;;;;11.10;97.70;;;;;;5004623;28;20429;-75
2024/01/29 15:44:49;;;;;;;;;;;11.00;97.90;;;;;;5013489;28;19928;-76
2024/01/29 15:47:35;;;;;;;;;;;11.00;98.00;;;;;;5001825;28;19925;-77
2024/01/29 15:50:21;;;;;;;;;;;10.90;98.30;;;;;;4998622;28;19914;-77
2024/01/29 15:53:07;;;;;;;;;;;10.90;98.50;;;;;;5000996;28;19924;-76
2024/01/29 15:55:53;;;;;;;;;;;10.80;98.60;;;;;;4998650;28;19914;-77
2024/01/29 15:58:39;;;;;;;;;;;10.80;98.80;;;;;;5006910;28;19923;-77
2024/01/29 16:01:25;;;;;;;;;;;10.70;99.10;;;;;;4999765;28;19999;-77
2024/01/29 16:04:11;;;;;;;;;;;10.60;99.30;;;;;;4999883;28;19968;-76
2024/01/29 16:06:57;;;;;;;;;;;10.60;99.80;;;;;;5027613;28;19932;-77
2024/01/29 16:09:43;;;;;;;;;;;10.50;99.80;;;;;;5018623;28;19952;-77
2024/01/29 16:12:29;;;;;;;;;;;10.40;99.90;;;;;;5026097;28;19943;-76
2024/01/29 16:15:16;;;;;;;;;;;10.40;99.90;;;;;;5026285;28;20252;-76
2024/01/29 16:18:06;;;;;;;;;;;10.40;99.90;;;;;;5040581;28;19952;-77